Time;durP1;ratioP1;P1;durP2;ratioP2;P2;SDS_P1;SDS_P2;PMS_P1;PMS_P2;Temp;Humidity;BMP_temperature;BMP_pressure;BME280_temperature;BME280_humidity;BME280_pressure;Samples;Min_cycle;Max_cycle;Signal;HPM_P1;HPM_P2
2022/05/06 04:02:37;;;;;;;12.32;9.57;;;11.60;99.90;;;;;;4980687;28;20055;-79
2022/05/06 04:05:04;;;;;;;12.25;9.30;;;11.60;99.90;;;;;;4982331;28;20051;-79
2022/05/06 04:07:30;;;;;;;13.38;9.63;;;11.60;99.90;;;;;;4983533;28;20137;-79
2022/05/06 04:09:55;;;;;;;13.00;9.52;;;11.50;99.90;;;;;;4981331;28;20618;-79
2022/05/06 04:12:23;;;;;;;12.48;8.90;;;11.60;99.90;;;;;;4982496;28;20037;-79
2022/05/06 04:14:52;;;;;;;14.38;9.65;;;11.70;99.90;;;;;;4981890;28;20064;-79
2022/05/06 04:17:20;;;;;;;15.32;9.05;;;11.70;99.90;;;;;;4982382;28;20031;-79
2022/05/06 04:25:16;;;;;;;9.43;8.35;;;11.70;99.90;;;;;;4984092;28;20201;-79
2022/05/06 04:27:43;;;;;;;11.55;9.68;;;11.70;99.90;;;;;;4990246;28;20039;-79
2022/05/06 04:30:09;;;;;;;14.55;9.07;;;11.70;99.90;;;;;;4984104;28;20122;-79
2022/05/06 04:32:35;;;;;;;12.82;8.90;;;11.70;99.90;;;;;;4978325;28;20039;-79
2022/05/06 04:35:04;;;;;;;11.13;8.80;;;11.70;99.90;;;;;;4978131;28;20039;-79
2022/05/06 04:37:30;;;;;;;10.90;9.20;;;11.70;99.90;;;;;;4979567;28;20086;-79
2022/05/06 04:39:56;;;;;;;10.35;8.75;;;11.70;99.90;;;;;;4979529;28;20110;-79
2022/05/06 04:42:22;;;;;;;13.27;9.23;;;11.80;99.90;;;;;;4977858;28;20074;-79
2022/05/06 04:44:47;;;;;;;12.23;8.88;;;11.80;99.90;;;;;;4976333;28;20396;-79
2022/05/06 04:47:13;;;;;;;11.10;8.32;;;11.80;99.90;;;;;;4977290;28;20083;-80
2022/05/06 04:49:38;;;;;;;10.68;8.48;;;11.90;99.90;;;;;;4977701;28;20063;-80
2022/05/06 04:52:04;;;;;;;14.52;8.40;;;11.90;99.90;;;;;;4975934;28;20045;-80
2022/05/06 04:54:30;;;;;;;11.50;9.00;;;11.90;99.90;;;;;;4976271;28;20032;-79
2022/05/06 04:56:56;;;;;;;12.60;8.07;;;11.90;99.90;;;;;;4976196;28;20101;-79
2022/05/06 04:59:22;;;;;;;11.63;8.30;;;12.00;99.90;;;;;;4977219;28;20044;-81
2022/05/06 05:01:48;;;;;;;10.70;8.30;;;12.00;99.90;;;;;;4978992;28;20036;-82
2022/05/06 05:04:14;;;;;;;10.75;8.02;;;12.00;99.90;;;;;;4979237;28;20027;-81
2022/05/06 05:06:39;;;;;;;15.90;9.07;;;12.00;99.90;;;;;;4977428;28;20035;-81
2022/05/06 05:09:06;;;;;;;12.60;8.55;;;12.00;99.90;;;;;;4980749;28;20035;-81
2022/05/06 05:11:34;;;;;;;10.98;7.93;;;12.10;99.90;;;;;;4981109;28;20035;-81
2022/05/06 05:14:02;;;;;;;9.75;8.57;;;12.10;99.90;;;;;;4981260;28;20032;-80
2022/05/06 05:16:28;;;;;;;14.75;9.20;;;12.20;99.90;;;;;;4980854;28;20027;-79
2022/05/06 05:18:53;;;;;;;11.65;9.52;;;12.20;99.90;;;;;;4978441;28;20039;-79
2022/05/06 05:21:19;;;;;;;9.80;8.43;;;12.30;99.90;;;;;;4978522;28;20081;-80
2022/05/06 05:23:45;;;;;;;12.05;9.25;;;12.20;99.90;;;;;;4978331;28;20126;-80
2022/05/06 05:26:13;;;;;;;10.77;8.13;;;12.30;99.90;;;;;;4979602;28;20038;-80
2022/05/06 05:28:38;;;;;;;10.02;8.32;;;12.30;99.90;;;;;;4980668;28;20043;-80
2022/05/06 05:31:04;;;;;;;11.10;7.93;;;12.40;99.90;;;;;;4980698;28;20040;-79
2022/05/06 05:33:29;;;;;;;14.68;8.27;;;12.40;99.90;;;;;;4977339;28;20102;-79
2022/05/06 05:35:55;;;;;;;10.45;7.95;;;12.40;99.90;;;;;;4978077;28;20440;-79
2022/05/06 05:38:21;;;;;;;12.38;8.60;;;12.50;99.90;;;;;;4978868;28;20038;-79
2022/05/06 05:40:46;;;;;;;10.38;8.13;;;12.50;99.90;;;;;;4980009;28;20093;-80
2022/05/06 05:48:41;;;;;;;10.02;7.85;;;12.70;99.90;;;;;;4980434;28;20097;-80
2022/05/06 05:51:07;;;;;;;12.57;7.45;;;12.70;99.90;;;;;;4981199;28;20073;-80
2022/05/06 05:53:33;;;;;;;13.15;8.30;;;12.70;99.90;;;;;;4981346;28;20031;-79
2022/05/06 05:55:59;;;;;;;9.68;7.78;;;12.70;99.90;;;;;;4981504;28;20027;-79
2022/05/06 05:58:25;;;;;;;10.23;6.97;;;12.80;99.90;;;;;;4980534;28;20520;-79
2022/05/06 06:00:50;;;;;;;10.13;6.95;;;12.90;99.90;;;;;;4977908;28;20116;-80
2022/05/06 06:03:16;;;;;;;11.45;7.35;;;13.00;99.90;;;;;;4978605;28;20375;-80
2022/05/06 06:05:49;;;;;;;11.38;7.53;;;13.00;99.90;;;;;;4979305;28;20114;-80
2022/05/06 06:08:15;;;;;;;11.32;7.60;;;13.10;99.90;;;;;;4979044;28;20043;-80
2022/05/06 06:10:40;;;;;;;8.65;6.90;;;13.20;99.90;;;;;;4980760;28;20039;-80
2022/05/06 06:13:06;;;;;;;12.77;7.22;;;13.30;99.90;;;;;;4980133;28;20477;-80
2022/05/06 06:15:32;;;;;;;9.77;7.03;;;13.40;99.90;;;;;;4978943;28;20373;-79
2022/05/06 06:17:58;;;;;;;10.75;7.13;;;13.60;99.90;;;;;;4980476;28;20039;-80
2022/05/06 06:20:23;;;;;;;10.85;6.28;;;13.80;99.90;;;;;;4978357;28;20035;-80
2022/05/06 06:22:50;;;;;;;11.35;6.38;;;13.80;99.90;;;;;;4981067;28;20070;-80
2022/05/06 06:25:16;;;;;;;8.65;6.75;;;14.00;99.90;;;;;;4980277;28;20114;-80
2022/05/06 06:27:43;;;;;;;11.65;6.25;;;14.20;99.90;;;;;;4980290;28;20450;-79
2022/05/06 06:30:12;;;;;;;10.68;6.10;;;14.30;99.90;;;;;;4979444;28;20031;-80
2022/05/06 06:32:38;;;;;;;14.18;6.53;;;14.40;99.90;;;;;;4978579;28;20429;-80
2022/05/06 06:35:04;;;;;;;8.48;5.90;;;14.60;99.90;;;;;;4979499;28;20027;-80
2022/05/06 06:37:32;;;;;;;10.00;6.25;;;14.60;99.90;;;;;;4984911;28;20035;-79
2022/05/06 06:39:58;;;;;;;9.40;6.20;;;14.50;99.90;;;;;;4986681;28;20874;-80
2022/05/06 06:42:25;;;;;;;8.00;5.90;;;14.50;99.90;;;;;;4988050;28;20099;-79
2022/05/06 06:44:51;;;;;;;8.70;6.38;;;14.60;99.90;;;;;;4985608;28;20055;-80
2022/05/06 06:47:16;;;;;;;6.88;6.15;;;14.80;99.90;;;;;;4987458;28;20048;-80
2022/05/06 06:49:42;;;;;;;7.38;5.90;;;14.80;99.90;;;;;;4985466;28;20079;-79
2022/05/06 06:52:08;;;;;;;7.65;5.45;;;15.00;99.90;;;;;;4988628;28;20083;-79
2022/05/06 06:54:33;;;;;;;7.28;5.13;;;15.10;99.90;;;;;;4986612;28;20435;-79
2022/05/06 06:56:59;;;;;;;7.88;5.32;;;15.20;99.90;;;;;;4987783;28;20090;-80
2022/05/06 06:59:25;;;;;;;10.45;5.68;;;15.20;99.90;;;;;;4994693;28;20036;-79
2022/05/06 07:01:50;;;;;;;8.57;5.18;;;15.20;99.90;;;;;;4996089;28;20057;-80
2022/05/06 07:04:16;;;;;;;8.73;5.78;;;15.50;99.90;;;;;;4984876;28;20062;-79
2022/05/06 07:12:10;;;;;;;6.32;4.60;;;15.90;99.90;;;;;;4988314;28;20110;-80
2022/05/06 07:14:38;;;;;;;4.32;3.92;;;15.90;99.90;;;;;;4990328;28;20027;-81
2022/05/06 07:17:07;;;;;;;6.57;4.00;;;16.10;99.90;;;;;;4985540;28;20039;-80
2022/05/06 07:19:33;;;;;;;8.00;3.70;;;16.40;99.90;;;;;;4984982;28;20042;-80
2022/05/06 07:21:59;;;;;;;6.10;3.70;;;16.80;99.90;;;;;;4987305;28;20449;-81
2022/05/06 07:24:25;;;;;;;6.18;3.65;;;16.70;99.90;;;;;;4988393;28;20077;-79
2022/05/06 07:26:52;;;;;;;8.20;4.07;;;16.70;99.90;;;;;;4986556;28;20043;-79
2022/05/06 07:29:19;;;;;;;5.40;3.58;;;16.70;99.90;;;;;;4987492;28;20031;-80
2022/05/06 07:31:45;;;;;;;5.00;3.42;;;17.00;99.90;;;;;;4981230;28;20090;-81
2022/05/06 07:34:12;;;;;;;6.63;3.65;;;17.00;99.70;;;;;;4982916;28;20031;-81
2022/05/06 07:36:44;;;;;;;5.85;3.50;;;16.70;99.90;;;;;;4983353;28;20059;-81
2022/05/06 07:39:14;;;;;;;3.90;3.50;;;16.50;98.90;;;;;;4982209;28;20027;-81
2022/05/06 07:41:40;;;;;;;4.57;3.38;;;16.50;99.90;;;;;;4979275;28;20039;-81
2022/05/06 07:44:09;;;;;;;5.53;3.60;;;16.70;99.90;;;;;;4980740;28;20031;-81
2022/05/06 07:46:36;;;;;;;6.15;3.40;;;16.90;99.90;;;;;;4983026;28;20044;-81
2022/05/06 07:49:03;;;;;;;6.53;3.47;;;17.20;99.40;;;;;;4980435;28;20042;-81
2022/05/06 07:51:28;;;;;;;5.38;3.28;;;17.60;99.90;;;;;;4980296;28;20745;-81
2022/05/06 07:53:56;;;;;;;4.93;3.10;;;17.70;96.30;;;;;;4979597;28;20047;-81
2022/05/06 07:56:23;;;;;;;5.00;3.25;;;17.70;96.50;;;;;;4983729;28;20841;-80
2022/05/06 07:58:52;;;;;;;4.68;3.17;;;17.80;96.50;;;;;;4983821;28;20066;-81
2022/05/06 08:04:32;;;;;;;8.60;4.15;;;17.60;96.00;;;;;;4982223;28;20070;-81
2022/05/06 08:06:51;;;;;;;4.60;3.25;;;17.90;94.80;;;;;;4982250;28;20313;-82
2022/05/06 08:09:17;;;;;;;4.15;2.78;;;18.10;95.70;;;;;;4980941;28;20035;-83
2022/05/06 08:11:43;;;;;;;6.22;2.63;;;17.90;93.30;;;;;;4978963;28;20035;-82
2022/05/06 08:14:08;;;;;;;4.15;3.00;;;17.70;93.40;;;;;;4983207;28;20055;-82
2022/05/06 08:16:34;;;;;;;6.93;3.20;;;17.40;95.60;;;;;;4979193;28;20039;-81
2022/05/06 08:19:03;;;;;;;3.55;2.60;;;17.30;94.20;;;;;;4980251;28;20556;-82
2022/05/06 08:21:29;;;;;;;3.53;2.55;;;17.70;94.90;;;;;;4977968;28;20027;-82
2022/05/06 08:23:55;;;;;;;5.13;3.03;;;18.10;94.70;;;;;;4980004;28;20525;-82
2022/05/06 08:26:21;;;;;;;5.07;2.83;;;18.00;93.50;;;;;;4978765;28;20046;-82
2022/05/06 08:28:46;;;;;;;4.80;2.72;;;17.80;93.20;;;;;;4979043;28;20050;-82
2022/05/06 08:31:12;;;;;;;3.55;2.38;;;18.20;93.00;;;;;;4980516;28;20031;-82
2022/05/06 08:33:37;;;;;;;3.75;2.28;;;18.60;92.40;;;;;;4980956;28;20466;-82
2022/05/06 08:36:05;;;;;;;6.15;2.78;;;18.50;92.30;;;;;;4981965;28;20035;-82
2022/05/06 08:38:30;;;;;;;5.32;2.85;;;18.30;93.70;;;;;;4980142;28;20035;-82
2022/05/06 08:40:57;;;;;;;3.80;2.50;;;18.40;92.10;;;;;;4979954;28;20035;-82
2022/05/06 08:43:23;;;;;;;6.15;3.13;;;18.70;90.80;;;;;;4979008;28;20039;-82
2022/05/06 08:51:32;;;;;;;4.97;2.53;;;18.40;92.20;;;;;;4983055;28;20038;-82
2022/05/06 08:53:57;;;;;;;5.80;2.60;;;18.50;92.40;;;;;;4980061;28;20043;-82
2022/05/06 08:56:23;;;;;;;5.88;2.33;;;18.70;92.40;;;;;;4981346;28;20426;-82
2022/05/06 08:58:49;;;;;;;6.80;2.92;;;19.10;90.30;;;;;;4981255;28;20095;-82
2022/05/06 09:01:17;;;;;;;4.85;2.70;;;19.10;90.90;;;;;;4982768;28;20490;-82
2022/05/06 09:03:48;;;;;;;6.78;2.50;;;19.60;90.20;;;;;;4982676;28;20102;-81
2022/05/06 09:06:21;;;;;;;3.38;2.47;;;19.90;89.10;;;;;;4981248;28;20039;-81
2022/05/06 09:08:48;;;;;;;2.53;2.20;;;20.00;90.10;;;;;;4981595;28;20043;-81
2022/05/06 09:11:16;;;;;;;5.60;2.70;;;19.90;85.00;;;;;;4981664;28;20122;-81
2022/05/06 09:13:58;;;;;;;4.60;2.28;;;20.20;84.80;;;;;;4980672;28;20115;-81
2022/05/06 09:16:41;;;;;;;5.18;2.35;;;20.10;84.10;;;;;;4980658;28;20038;-81
2022/05/06 09:19:28;;;;;;;3.55;2.00;;;19.60;82.80;;;;;;4982002;28;20042;-80
2022/05/06 09:22:13;;;;;;;4.80;1.95;;;19.80;86.00;;;;;;4980479;28;20027;-81
2022/05/06 09:24:40;;;;;;;4.03;2.05;;;20.10;85.90;;;;;;4982593;28;20467;-81
2022/05/06 09:27:14;;;;;;;3.72;2.20;;;20.50;86.00;;;;;;4981693;28;20054;-81
2022/05/06 09:29:45;;;;;;;4.55;2.38;;;20.70;82.00;;;;;;4981757;28;20572;-81
2022/05/06 09:32:23;;;;;;;3.67;2.10;;;20.50;81.90;;;;;;4983263;28;20090;-81
2022/05/06 09:34:53;;;;;;;4.03;2.35;;;20.40;82.60;;;;;;4990722;28;20899;-81
2022/05/06 09:37:34;;;;;;;5.20;2.20;;;20.50;83.20;;;;;;4987797;28;20122;-81
2022/05/06 09:40:10;;;;;;;3.90;2.30;;;20.60;84.90;;;;;;4978543;28;20051;-80
2022/05/06 09:42:41;;;;;;;3.15;2.10;;;20.50;85.20;;;;;;4978030;28;20042;-81
2022/05/06 09:45:09;;;;;;;5.22;2.20;;;20.40;81.30;;;;;;4979545;28;20038;-81
2022/05/06 09:47:35;;;;;;;5.60;2.20;;;20.10;81.90;;;;;;4977389;28;20077;-81
2022/05/06 09:50:03;;;;;;;4.50;2.45;;;19.60;83.30;;;;;;4976851;28;20039;-81
2022/05/06 09:52:29;;;;;;;3.95;2.42;;;19.50;83.70;;;;;;4979120;28;20067;-81
2022/05/06 09:54:56;;;;;;;6.38;2.50;;;19.70;81.30;;;;;;4979564;28;20051;-81
2022/05/06 09:57:21;;;;;;;4.97;2.40;;;20.00;83.30;;;;;;4978561;28;20031;-81
2022/05/06 09:59:47;;;;;;;4.53;2.15;;;20.50;82.50;;;;;;4975903;28;20093;-81
2022/05/06 10:02:13;;;;;;;3.30;2.10;;;20.30;80.50;;;;;;4977309;28;20452;-81
2022/05/06 10:04:39;;;;;;;5.75;2.28;;;20.20;82.00;;;;;;4977788;28;20035;-81
2022/05/06 10:07:09;;;;;;;4.95;2.35;;;20.20;82.00;;;;;;4977138;28;20537;-83
2022/05/06 10:10:01;;;;;;;3.47;2.25;;;20.40;80.80;;;;;;4979008;28;20038;-81
2022/05/06 10:12:29;;;;;;;3.67;2.00;;;20.20;81.10;;;;;;4976280;28;20055;-81
2022/05/06 10:14:55;;;;;;;4.38;2.08;;;20.40;82.40;;;;;;4980432;28;20501;-80
2022/05/06 10:17:46;;;;;;;4.05;2.17;;;20.00;81.40;;;;;;4980442;28;20044;-80
2022/05/06 10:20:45;;;;;;;4.47;2.15;;;19.80;80.60;;;;;;4979901;28;20027;-80
2022/05/06 10:23:12;;;;;;;4.28;2.30;;;20.30;80.00;;;;;;4979485;28;20035;-82
2022/05/06 10:25:48;;;;;;;4.85;2.00;;;20.40;78.00;;;;;;4982574;28;20134;-81
2022/05/06 10:34:12;;;;;;;5.85;2.30;;;20.80;79.00;;;;;;4982057;28;20074;-81
2022/05/06 10:36:41;;;;;;;3.67;2.15;;;20.30;80.50;;;;;;4983269;28;20497;-81
2022/05/06 10:39:38;;;;;;;5.97;2.30;;;20.70;77.40;;;;;;4982475;28;20039;-81
2022/05/06 10:42:17;;;;;;;5.20;2.60;;;20.80;80.40;;;;;;4980291;28;20520;-81
2022/05/06 10:44:50;;;;;;;5.80;2.60;;;21.00;79.50;;;;;;4980405;28;20035;-82
2022/05/06 10:47:16;;;;;;;5.97;2.20;;;21.20;76.10;;;;;;4979991;28;20493;-82
2022/05/06 10:49:46;;;;;;;2.97;2.15;;;21.10;78.00;;;;;;4980661;28;20035;-81
2022/05/06 10:52:18;;;;;;;6.72;2.58;;;20.60;79.40;;;;;;4988142;28;20460;-80
2022/05/06 10:54:47;;;;;;;5.00;2.45;;;20.70;75.70;;;;;;4997799;28;20031;-81
2022/05/06 10:57:14;;;;;;;3.33;2.22;;;21.00;78.70;;;;;;4990201;28;20202;-81
2022/05/06 11:00:03;;;;;;;5.38;2.55;;;20.80;75.60;;;;;;4982701;28;20035;-82
2022/05/06 11:02:37;;;;;;;3.63;2.40;;;20.20;75.60;;;;;;4982141;28;20815;-81
2022/05/06 11:05:07;;;;;;;3.90;2.35;;;19.90;77.70;;;;;;4980542;28;20035;-81
2022/05/06 11:07:37;;;;;;;6.53;2.50;;;20.30;79.60;;;;;;4982659;28;20035;-82
2022/05/06 11:10:19;;;;;;;4.15;2.38;;;20.90;79.20;;;;;;4982809;28;20752;-81
2022/05/06 11:12:47;;;;;;;7.18;2.65;;;21.30;77.90;;;;;;4983976;28;20059;-82
2022/05/06 11:15:15;;;;;;;6.80;2.60;;;21.00;75.00;;;;;;4981952;28;20035;-81
2022/05/06 11:17:42;;;;;;;6.88;2.40;;;21.10;75.50;;;;;;4981317;28;20050;-81
2022/05/06 11:20:23;;;;;;;5.25;2.50;;;21.10;75.50;;;;;;4982720;28;20032;-81
2022/05/06 11:22:52;;;;;;;4.18;2.60;;;21.30;80.30;;;;;;4981792;28;20035;-81
2022/05/06 11:25:20;;;;;;;3.55;2.25;;;21.40;75.70;;;;;;4983941;28;20110;-82
2022/05/06 11:27:46;;;;;;;4.25;2.65;;;21.40;76.20;;;;;;4981578;28;20078;-82
2022/05/06 11:30:19;;;;;;;6.38;2.30;;;21.10;78.00;;;;;;4980823;28;20074;-81
2022/05/06 11:33:04;;;;;;;4.13;2.67;;;21.30;77.00;;;;;;4984936;28;20043;-82
2022/05/06 11:35:32;;;;;;;4.40;2.60;;;21.30;73.50;;;;;;4983783;28;20031;-81
2022/05/06 11:37:59;;;;;;;4.28;2.22;;;21.10;73.90;;;;;;4981644;28;20114;-80
2022/05/06 11:42:56;;;;;;;3.78;2.45;;;20.90;75.30;;;;;;4980648;28;20032;-81
2022/05/06 11:48:11;;;;;;;4.00;2.15;;;21.70;75.70;;;;;;4983096;28;20043;-82
2022/05/06 11:50:38;;;;;;;4.60;2.30;;;22.40;71.20;;;;;;4980998;28;20070;-81
2022/05/06 11:53:13;;;;;;;3.10;1.98;;;22.60;72.40;;;;;;4982750;28;20043;-81
2022/05/06 11:55:41;;;;;;;5.45;2.40;;;23.00;71.00;;;;;;4981201;28;20596;-81
2022/05/06 11:58:10;;;;;;;3.45;2.08;;;23.00;68.80;;;;;;4982825;28;20509;-80
2022/05/06 12:00:36;;;;;;;5.05;2.17;;;22.90;69.10;;;;;;4981697;28;20039;-80
2022/05/06 12:03:05;;;;;;;4.53;2.22;;;22.50;71.30;;;;;;4981561;28;20480;-81
2022/05/06 12:05:32;;;;;;;4.47;2.22;;;22.20;70.30;;;;;;4982737;28;20177;-81
2022/05/06 12:07:58;;;;;;;2.92;2.00;;;22.20;70.60;;;;;;4987170;28;20039;-80
2022/05/06 12:10:34;;;;;;;4.82;2.70;;;23.00;71.90;;;;;;4988810;28;20086;-82
2022/05/06 12:13:07;;;;;;;6.63;2.30;;;23.10;67.50;;;;;;4980540;28;20117;-82
2022/05/06 12:15:37;;;;;;;4.80;2.45;;;23.00;68.60;;;;;;4981042;28;20114;-81
2022/05/06 12:18:09;;;;;;;4.20;2.08;;;22.50;68.20;;;;;;4981095;28;20057;-81
2022/05/06 12:20:38;;;;;;;4.32;2.47;;;22.90;72.50;;;;;;4980046;28;20027;-81
2022/05/06 12:23:05;;;;;;;4.25;2.10;;;22.60;70.60;;;;;;4978379;28;20059;-81
2022/05/06 12:25:32;;;;;;;6.95;2.08;;;22.70;69.60;;;;;;4979388;28;20450;-81
2022/05/06 12:28:15;;;;;;;5.13;2.00;;;22.40;69.30;;;;;;4980199;28;20047;-82
2022/05/06 12:30:42;;;;;;;4.85;2.25;;;22.50;68.60;;;;;;4979665;28;20047;-82
2022/05/06 12:33:12;;;;;;;4.55;2.40;;;22.70;67.10;;;;;;4980709;28;20042;-81
2022/05/06 12:35:58;;;;;;;4.30;2.50;;;23.20;64.20;;;;;;4979372;28;20030;-80
2022/05/06 12:38:25;;;;;;;4.22;2.28;;;23.40;64.30;;;;;;4981892;28;20039;-81
2022/05/06 12:40:52;;;;;;;4.10;2.58;;;23.90;68.60;;;;;;4978399;28;20110;-81
2022/05/06 12:43:26;;;;;;;3.50;2.30;;;24.00;66.70;;;;;;4979956;28;20067;-81
2022/05/06 12:46:00;;;;;;;5.72;2.45;;;24.50;64.20;;;;;;4980615;28;20034;-82
2022/05/06 12:51:11;;;;;;;6.00;1.92;;;23.40;68.10;;;;;;4980486;28;20075;-81
2022/05/06 12:53:36;;;;;;;3.50;2.00;;;23.20;68.70;;;;;;4978404;28;20055;-82
2022/05/06 12:56:03;;;;;;;3.75;1.92;;;23.40;64.20;;;;;;4981556;28;20039;-81
2022/05/06 12:58:30;;;;;;;3.40;1.88;;;23.30;65.20;;;;;;4981097;28;20085;-81
2022/05/06 13:00:59;;;;;;;4.47;1.80;;;22.60;63.20;;;;;;4980884;28;20036;-81
2022/05/06 13:03:25;;;;;;;4.40;2.40;;;22.80;63.70;;;;;;4978840;28;20058;-81
2022/05/06 13:05:53;;;;;;;6.40;2.33;;;23.10;63.50;;;;;;4982137;28;20066;-82
2022/05/06 13:08:20;;;;;;;4.60;2.05;;;23.20;63.80;;;;;;4979401;28;20067;-81
2022/05/06 13:10:45;;;;;;;5.05;2.05;;;23.10;67.50;;;;;;4981417;28;20041;-80
2022/05/06 13:13:11;;;;;;;4.32;2.22;;;23.20;68.60;;;;;;4981131;28;20561;-82
2022/05/06 13:15:36;;;;;;;5.97;2.42;;;23.90;68.00;;;;;;4981334;28;20506;-81
2022/05/06 13:18:02;;;;;;;4.13;2.60;;;23.90;69.20;;;;;;4979962;28;20043;-81
2022/05/06 13:20:27;;;;;;;4.43;2.10;;;24.60;62.20;;;;;;4982196;28;20413;-81
2022/05/06 13:22:53;;;;;;;4.70;1.95;;;25.50;61.70;;;;;;4986598;28;20039;-82
2022/05/06 13:25:18;;;;;;;6.32;1.63;;;25.80;61.20;;;;;;4987605;28;20054;-82
2022/05/06 13:27:45;;;;;;;4.45;1.98;;;24.90;58.40;;;;;;4987755;28;20058;-81
2022/05/06 13:30:11;;;;;;;3.00;2.00;;;25.40;59.50;;;;;;4986068;28;20079;-81
2022/05/06 13:32:37;;;;;;;3.38;2.20;;;25.10;59.80;;;;;;4978220;28;20113;-81
2022/05/06 13:35:02;;;;;;;10.43;6.20;;;25.40;58.40;;;;;;4978507;28;20049;-81
2022/05/06 13:37:28;;;;;;;5.03;2.75;;;25.80;60.40;;;;;;4981883;28;20118;-81
2022/05/06 13:39:54;;;;;;;4.60;2.40;;;26.00;56.90;;;;;;4977592;28;20073;-81
2022/05/06 13:42:19;;;;;;;3.60;2.30;;;25.40;58.90;;;;;;4977571;28;20043;-81
2022/05/06 13:44:46;;;;;;;4.82;2.10;;;25.80;58.00;;;;;;4978382;28;20042;-82
2022/05/06 13:47:12;;;;;;;2.65;2.10;;;25.20;58.20;;;;;;4979089;28;20043;-81
2022/05/06 13:49:38;;;;;;;2.50;1.83;;;24.80;58.90;;;;;;4979131;28;20031;-83
2022/05/06 13:52:07;;;;;;;5.50;2.22;;;25.70;56.70;;;;;;4978855;28;20043;-83
2022/05/06 13:54:33;;;;;;;4.10;1.90;;;26.80;56.70;;;;;;4979681;28;20083;-81
2022/05/06 13:59:42;;;;;;;4.50;2.17;;;26.70;54.30;;;;;;4979692;28;20505;-83
2022/05/06 14:02:08;;;;;;;2.80;2.00;;;26.70;57.80;;;;;;4979096;28;20043;-82
2022/05/06 14:04:39;;;;;;;3.72;2.30;;;26.80;55.30;;;;;;4978433;28;20036;-83
2022/05/06 14:07:05;;;;;;;2.95;2.03;;;26.30;56.00;;;;;;4982282;28;20713;-84
2022/05/06 14:09:30;;;;;;;4.63;2.20;;;26.00;55.70;;;;;;4981695;28;20046;-82
2022/05/06 14:11:56;;;;;;;2.88;2.00;;;25.50;56.80;;;;;;4981255;28;20043;-83
2022/05/06 14:14:25;;;;;;;2.47;2.00;;;26.20;55.90;;;;;;4982703;28;20043;-82
2022/05/06 14:16:50;;;;;;;3.75;2.10;;;26.30;53.10;;;;;;4989518;28;20883;-81
2022/05/06 14:19:16;;;;;;;3.28;2.20;;;27.10;54.70;;;;;;4991789;28;20106;-81
2022/05/06 14:21:42;;;;;;;6.28;2.22;;;27.70;52.50;;;;;;4989932;28;20087;-81
2022/05/06 14:24:09;;;;;;;4.00;2.30;;;27.30;51.90;;;;;;4989514;28;20043;-85
2022/05/06 14:26:35;;;;;;;4.65;1.80;;;27.70;54.40;;;;;;4987919;28;20047;-81
2022/05/06 14:29:03;;;;;;;3.97;1.85;;;27.20;51.70;;;;;;4982876;28;20047;-83
2022/05/06 14:31:28;;;;;;;4.70;1.88;;;26.50;54.10;;;;;;4982977;28;20054;-82
2022/05/06 14:33:54;;;;;;;3.33;1.70;;;27.20;51.70;;;;;;4984281;28;20086;-82
2022/05/06 14:36:21;;;;;;;4.72;1.95;;;26.00;53.90;;;;;;4987725;28;20108;-83
2022/05/06 14:38:48;;;;;;;2.50;1.77;;;24.40;53.60;;;;;;4983694;28;20413;-81
2022/05/06 14:41:16;;;;;;;2.78;1.95;;;23.80;55.30;;;;;;4985782;28;20035;-82
2022/05/06 14:43:42;;;;;;;2.85;1.77;;;23.90;58.50;;;;;;4983943;28;20039;-81
2022/05/06 14:46:11;;;;;;;4.03;1.98;;;23.80;61.60;;;;;;4995689;28;20055;-82
2022/05/06 14:48:36;;;;;;;4.57;1.67;;;23.60;62.10;;;;;;4984758;28;20043;-83
2022/05/06 14:51:02;;;;;;;2.80;1.88;;;23.50;59.60;;;;;;4982782;28;20035;-82
2022/05/06 14:53:27;;;;;;;3.45;1.92;;;24.00;62.10;;;;;;4986800;28;20045;-82
2022/05/06 14:55:53;;;;;;;4.43;1.80;;;24.30;57.00;;;;;;4984011;28;20031;-83
2022/05/06 14:58:19;;;;;;;3.72;1.80;;;24.80;59.20;;;;;;4983849;28;20039;-82
2022/05/06 15:00:44;;;;;;;3.30;1.63;;;25.50;55.60;;;;;;4984861;28;20043;-83
2022/05/06 15:03:10;;;;;;;3.22;1.67;;;26.30;55.30;;;;;;4979999;28;20102;-82
2022/05/06 15:05:36;;;;;;;4.13;1.85;;;26.70;51.50;;;;;;4981665;28;20401;-82
2022/05/06 15:08:04;;;;;;;4.18;1.95;;;27.10;49.70;;;;;;4980641;28;20416;-83
2022/05/06 15:10:38;;;;;;;2.65;1.83;;;27.00;53.60;;;;;;4981075;28;20031;-83
2022/05/06 15:13:09;;;;;;;2.33;1.70;;;26.80;54.40;;;;;;4980125;28;20038;-84
2022/05/06 15:15:35;;;;;;;2.60;1.63;;;26.40;48.80;;;;;;4983160;28;20027;-82
2022/05/06 15:19:23;;;;;;;4.25;1.70;;;26.10;52.70;;;;;;4978004;28;20047;-83
2022/05/06 15:20:46;;;;;;;5.70;1.80;;;26.30;51.70;;;;;;4981131;28;20028;-81
2022/05/06 15:23:20;;;;;;;5.13;1.83;;;26.10;53.00;;;;;;4984511;28;20035;-81
2022/05/06 15:25:47;;;;;;;3.90;1.60;;;25.90;51.10;;;;;;4984773;28;20041;-82
2022/05/06 15:28:12;;;;;;;3.92;1.70;;;25.40;57.90;;;;;;4984962;28;20050;-82
2022/05/06 15:30:40;;;;;;;1.80;1.30;;;25.60;51.60;;;;;;4985655;28;20031;-81
2022/05/06 15:33:06;;;;;;;4.68;1.77;;;25.70;53.80;;;;;;4984566;28;20139;-81
2022/05/06 15:35:31;;;;;;;2.25;1.55;;;25.70;54.90;;;;;;4983335;28;20515;-82
2022/05/06 15:37:57;;;;;;;4.15;1.73;;;24.70;54.20;;;;;;4980170;28;20062;-82
2022/05/06 15:40:23;;;;;;;3.45;1.50;;;24.20;55.90;;;;;;4977651;28;20031;-81
2022/05/06 15:42:49;;;;;;;3.78;1.50;;;24.00;56.30;;;;;;4978891;28;20039;-82
2022/05/06 15:45:15;;;;;;;2.63;1.55;;;24.00;55.90;;;;;;4984384;28;20032;-81
2022/05/06 15:47:41;;;;;;;4.35;1.58;;;24.00;57.00;;;;;;4981431;28;20070;-81
2022/05/06 15:50:08;;;;;;;4.13;1.20;;;24.20;53.90;;;;;;4980714;28;20057;-81
2022/05/06 15:52:33;;;;;;;3.28;1.70;;;25.10;54.70;;;;;;4981553;28;20490;-81
2022/05/06 15:54:59;;;;;;;2.80;1.40;;;25.30;53.30;;;;;;4985585;28;20083;-82
2022/05/06 15:57:38;;;;;;;3.17;1.70;;;25.40;51.80;;;;;;4982864;28;20074;-81
2022/05/06 16:00:13;;;;;;;2.33;1.50;;;25.20;53.00;;;;;;4986157;28;20031;-80
2022/05/06 16:02:38;;;;;;;3.42;1.65;;;25.30;52.10;;;;;;4986045;28;20050;-83
2022/05/06 16:05:04;;;;;;;4.28;1.50;;;24.60;53.90;;;;;;4978843;28;20038;-81
2022/05/06 16:07:37;;;;;;;3.70;1.63;;;24.50;58.40;;;;;;4979472;28;20047;-80
2022/05/06 16:10:07;;;;;;;2.83;1.50;;;24.60;55.70;;;;;;4981662;28;20035;-80
2022/05/06 16:12:33;;;;;;;2.95;1.45;;;24.20;53.00;;;;;;4981183;28;20420;-80
2022/05/06 16:15:17;;;;;;;2.95;1.42;;;24.30;53.50;;;;;;4981371;28;20042;-82
2022/05/06 16:17:45;;;;;;;2.55;1.55;;;24.60;55.70;;;;;;4980153;28;20039;-81
2022/05/06 16:20:11;;;;;;;5.53;1.70;;;25.60;53.70;;;;;;4980327;28;20031;-82
2022/05/06 16:22:36;;;;;;;2.97;1.50;;;25.90;55.90;;;;;;4981171;28;20442;-82
2022/05/06 16:25:04;;;;;;;3.80;1.40;;;26.40;55.00;;;;;;4988679;28;20031;-80
2022/05/06 16:27:30;;;;;;;4.13;1.60;;;26.30;51.80;;;;;;4990451;28;20043;-80
2022/05/06 16:29:57;;;;;;;4.22;1.67;;;26.10;53.60;;;;;;4988020;28;20035;-80
2022/05/06 16:32:23;;;;;;;1.95;1.42;;;25.80;51.60;;;;;;4987796;28;20036;-80
2022/05/06 16:37:33;;;;;;;2.20;1.90;;;25.00;52.60;;;;;;4991162;28;20036;-81
2022/05/06 16:39:58;;;;;;;3.90;1.58;;;24.70;54.20;;;;;;4989753;28;20039;-81
2022/05/06 16:42:25;;;;;;;1.88;1.40;;;24.30;54.70;;;;;;4988174;28;20095;-81
2022/05/06 16:44:50;;;;;;;2.92;1.55;;;24.00;54.80;;;;;;4989426;28;20892;-80
2022/05/06 16:47:17;;;;;;;3.35;1.80;;;23.70;55.40;;;;;;4982042;28;20075;-81
2022/05/06 16:49:42;;;;;;;2.08;1.52;;;24.10;55.40;;;;;;4979638;28;20063;-81
2022/05/06 16:52:08;;;;;;;2.72;1.58;;;23.90;56.60;;;;;;4980465;28;20058;-81
2022/05/06 16:54:34;;;;;;;3.05;1.65;;;23.60;57.40;;;;;;4983275;28;20046;-82
2022/05/06 16:56:59;;;;;;;4.90;1.80;;;23.30;57.70;;;;;;4993466;28;20043;-81
2022/05/06 16:59:25;;;;;;;5.65;1.77;;;22.90;57.60;;;;;;4992920;28;20043;-81
2022/05/06 17:01:54;;;;;;;3.15;1.90;;;22.80;58.20;;;;;;4991896;28;20047;-81
2022/05/06 17:04:20;;;;;;;5.57;2.10;;;22.60;59.90;;;;;;4991761;28;20043;-81
2022/05/06 17:06:45;;;;;;;6.07;2.97;;;22.30;60.30;;;;;;4990006;28;20477;-80
2022/05/06 17:09:11;;;;;;;3.42;2.40;;;22.10;60.70;;;;;;4990806;28;20496;-80
2022/05/06 17:11:36;;;;;;;4.28;2.70;;;21.70;60.80;;;;;;4991151;28;20091;-81
2022/05/06 17:14:03;;;;;;;3.65;3.03;;;21.50;61.80;;;;;;4993591;28;20100;-80
2022/05/06 17:16:28;;;;;;;3.00;2.55;;;21.30;61.60;;;;;;4996440;28;20050;-80
2022/05/06 17:18:54;;;;;;;3.83;2.28;;;21.10;63.20;;;;;;4988228;28;20046;-81
2022/05/06 17:21:20;;;;;;;5.57;2.30;;;21.00;64.40;;;;;;4982426;28;20035;-81
2022/05/06 17:23:46;;;;;;;4.28;2.88;;;20.80;64.10;;;;;;4978133;28;20038;-81
2022/05/06 17:26:12;;;;;;;4.07;2.00;;;20.80;64.60;;;;;;4979812;28;20031;-81
2022/05/06 17:28:37;;;;;;;4.45;2.00;;;20.50;65.70;;;;;;4977842;28;20043;-80
2022/05/06 17:31:09;;;;;;;4.72;2.00;;;20.40;65.70;;;;;;4978580;28;20027;-81
2022/05/06 17:33:34;;;;;;;4.45;1.90;;;20.50;66.00;;;;;;4979234;28;20039;-80
2022/05/06 17:36:00;;;;;;;3.65;1.58;;;20.50;64.60;;;;;;4980225;28;20059;-80